• Join FlightAware (Why Join?)
  • Login
  • US Flag 
05:43PM EDT


 

Airport Tracker/Info


-or-


 

Live Flight TrackerFlight Track Log ✈ EXS174 ✈ 26-Apr-2012 ✈ LPFR / FAO - EGPF / GLA

Flight Track Log - Related Links

Times and Time Zones

All times are in EDT time to prevent confusion due to time zone crossing. See the EXS174 flight status page for this flight to view local times or setup timezone preferences in your user account.

Time Position Orientation Groundspeed Altitude Reporting Facility
EDT Latitude Longitude Course Direction KTS MPH feet Rate Location/Type
07:08AM 37.3780 -7.9171 12° North  Level Estimated
07:09AM 37.4898 -7.9019 12° North  Level Estimated
07:10AM 37.6017 -7.8868 12° North  Level Estimated
07:11AM 37.7135 -7.8716 12° North  Level Estimated
07:12AM 37.8254 -7.8563 12° North  Level Estimated
07:13AM 37.9079 -7.8450 12° North  Level Estimated
07:14AM 37.9904 -7.8337 12° North  Level Estimated
07:15AM 38.0730 -7.8224 13° North  Level Estimated
07:16AM 38.1555 -7.8110 13° North  Level Estimated
07:17AM 38.2381 -7.7996 13° North  Level Estimated
07:18AM 38.3206 -7.7882 13° North  Level Estimated
07:19AM 38.4324 -7.7727 13° North  Level Estimated
07:20AM 38.5443 -7.7571 13° North  Level Estimated
07:21AM 38.6561 -7.7415 13° North  Level Estimated
07:22AM 38.7679 -7.7258 13° North  Level Estimated
07:23AM 38.8505 -7.7143 13° North  Level Estimated
07:24AM 38.9330 -7.7026 13° North  Level Estimated
07:25AM 39.0155 -7.6910 13° North  Level Estimated
07:26AM 39.0980 -7.6793 13° North  Level Estimated
07:27AM 39.1806 -7.6676 13° North  Level Estimated
07:28AM 39.2631 -7.6559 13° North  Level Estimated
07:29AM 39.3456 -7.6441 13° North  Level Estimated
07:30AM 39.4281 -7.6324 13° North  Level Estimated
07:31AM 39.5107 -7.6206 13° North  Level Estimated
07:32AM 39.6225 -7.6045 14° North  Level Estimated
07:33AM 39.7343 -7.5884 14° North  Level Estimated
07:34AM 39.8461 -7.5723 14° North  Level Estimated
07:35AM 39.9286 -7.5603 14° North  Level Estimated
07:36AM 40.0111 -7.5483 14° North  Level Estimated
07:37AM 40.0936 -7.5363 14° North  Level Estimated
07:38AM 40.1761 -7.5243 14° North  Level Estimated
07:39AM 40.2586 -7.5122 14° North  Level Estimated
07:40AM 40.3411 -7.5001 14° North  Level Estimated
07:41AM 40.4236 -7.4880 14° North  Level Estimated
07:42AM 40.5061 -7.4758 14° North  Level Estimated
07:43AM 40.5886 -7.4636 14° North  Level Estimated
07:44AM 40.6712 -7.4514 14° North  Level Estimated
07:45AM 40.7537 -7.4392 14° North  Level Estimated
07:46AM 40.8362 -7.4269 14° North  Level Estimated
07:47AM 40.9187 -7.4146 15° North  Level Estimated
07:48AM 41.0011 -7.4022 15° North  Level Estimated
07:49AM 41.0836 -7.3899 15° North  Level Estimated
07:50AM 41.1661 -7.3775 15° North  Level Estimated
07:51AM 41.2486 -7.3650 15° North  Level Estimated
07:52AM 41.3311 -7.3526 15° North  Level Estimated
07:53AM 41.4136 -7.3401 15° North  Level Estimated
07:54AM 41.4961 -7.3275 15° North  Level Estimated
07:55AM 41.5786 -7.3150 15° North  Level Estimated
07:56AM 41.6611 -7.3024 15° North  Level Estimated
07:57AM 41.7436 -7.2898 15° North  Level Estimated
07:58AM 41.8260 -7.2771 15° North  Level Estimated
07:59AM 41.9378 -7.2599 16° North  Level Estimated
08:00AM 42.0496 -7.2427 16° North  Level Estimated
08:01AM 42.1320 -7.2299 16° North  Level Estimated
08:02AM 42.2145 -7.2171 16° North  Level Estimated
08:03AM 42.2970 -7.2042 16° North  Level Estimated
08:04AM 42.3795 -7.1913 16° North  Level Estimated
08:05AM 42.4619 -7.1784 16° North  Level Estimated
08:06AM 42.5444 -7.1655 16° North  Level Estimated
08:07AM 42.6269 -7.1525 16° North  Level Estimated
08:08AM 42.7386 -7.1349 17° North  Level Estimated
08:09AM 42.8504 -7.1172 17° North  Level Estimated
08:10AM 42.9621 -7.0994 17° North  Level Estimated
08:11AM 43.0446 -7.0862 17° North  Level Estimated
08:12AM 43.1270 -7.0730 17° North  Level Estimated
08:13AM 43.2095 -7.0598 17° North  Level Estimated
08:14AM 43.2919 -7.0465 17° North  Level Estimated
08:15AM 43.3744 -7.0332 17° North  Level Estimated
08:16AM 43.4568 -7.0199 18° North  Level Estimated
08:17AM 43.5393 -7.0065 18° North  Level Estimated
08:18AM 43.6217 -6.9931 18° North  Level Estimated
08:19AM 43.7335 -6.9749 18° North  Level Estimated
08:20AM 43.8452 -6.9566 18° North  Level Estimated
08:21AM 43.9569 -6.9382 18° North  Level Estimated
08:22AM 44.0686 -6.9198 19° North  Level Estimated
08:23AM 44.1511 -6.9061 19° North  Level Estimated
08:24AM 44.2335 -6.8925 19° North  Level Estimated
08:25AM 44.3159 -6.8787 19° North  Level Estimated
08:26AM 44.3984 -6.8650 19° North  Level Estimated
08:27AM 44.4808 -6.8512 19° North  Level Estimated
08:28AM 44.5632 -6.8373 20° North  Level Estimated
08:29AM 44.6457 -6.8235 20° North  Level Estimated
08:30AM 44.7281 -6.8095 20° North  Level Estimated
08:31AM 44.8105 -6.7956 20° North  Level Estimated
08:32AM 44.8929 -6.7816 20° North  Level Estimated
08:33AM 44.9754 -6.7675 20° North  Level Estimated
08:34AM 45.0578 -6.7534 21° North  Level Estimated
08:35AM 45.1402 -6.7393 21° North  Level Estimated
08:36AM 45.2226 -6.7252 21° North  Level Estimated
08:37AM 45.3050 -6.7110 21° North  Level Estimated
08:38AM 45.3875 -6.6967 21° North  Level Estimated
08:39AM 45.4991 -6.6774 22° Northeast  Level Estimated
08:40AM 45.6108 -6.6579 22° Northeast  Level Estimated
08:41AM 45.7225 -6.6384 22° Northeast  Level Estimated
08:42AM 45.8049 -6.6239 23° Northeast  Level Estimated
08:43AM 45.8873 -6.6094 23° Northeast  Level Estimated
08:44AM 45.9697 -6.5949 23° Northeast  Level Estimated
08:45AM 46.0521 -6.5803 23° Northeast  Level Estimated
08:46AM 46.1345 -6.5657 24° Northeast  Level Estimated
08:47AM 46.2169 -6.5510 24° Northeast  Level Estimated
08:52AM 50.6088 -3.4412 North 473 544 38,000  Level FlightAware ADS-B
08:53AM 50.6859 -3.4300 North 473 544 38,000  Level FlightAware ADS-B
08:54AM 50.8298 -3.4099 North 473 544 38,000  Level FlightAware ADS-B
08:55AM 50.8993 -3.4001 North 473 544 38,000  Level FlightAware ADS-B
08:55AM 51.0005 -3.3856 North 472 543 38,000  Level FlightAware ADS-B
08:56AM 51.1199 -3.3649 North 473 544 38,000  Level FlightAware ADS-B
08:57AM 51.2163 -3.3417 North 474 545 38,000  Level FlightAware ADS-B
08:58AM 51.2889 -3.3243 North 473 544 38,000  Level FlightAware ADS-B
08:58AM 51.3675 -3.3056 North 473 544 38,000  Level FlightAware ADS-B
08:59AM 51.4330 -3.2900 North 471 542 38,000  Level FlightAware ADS-B
08:59AM 51.5001 -3.2740 North 470 541 38,000  Level FlightAware ADS-B
09:00AM 51.5795 -3.2550 North 469 540 38,000  Level FlightAware ADS-B
09:00AM 51.6519 -3.2377 North 469 540 38,000  Level FlightAware ADS-B
09:01AM 51.7241 -3.2204 North 467 537 38,000  Level FlightAware ADS-B
09:02AM 51.7990 -3.2021 North 467 537 38,000  Level FlightAware ADS-B
09:02AM 51.8902 -3.1795 North 466 536 38,000  Level FlightAware ADS-B
09:04AM 52.0636 -3.1375 North 467 537 38,000  Level FlightAware ADS-B
09:04AM 52.1373 -3.1192 North 467 537 38,000  Level FlightAware ADS-B
09:05AM 52.2312 -3.0961 North 467 537 38,000  Level FlightAware ADS-B
09:05AM 52.3015 -3.0789 North 467 537 38,000  Level FlightAware ADS-B
09:06AM 52.3719 -3.0615 North 467 537 38,000  Level FlightAware ADS-B
09:07AM 52.4523 -3.0413 North 466 536 38,000  Level FlightAware ADS-B
09:07AM 52.5200 -3.0242 North 466 536 38,000  Level FlightAware ADS-B
09:08AM 52.5893 -3.0067 North 466 536 38,000  Level FlightAware ADS-B
09:08AM 52.6595 -2.9890 North 466 536 38,000  Level FlightAware ADS-B
09:09AM 52.7254 -2.9723 North 466 536 38,000  Level FlightAware ADS-B
09:09AM 52.7905 -2.9562 North 466 536 38,000  Level FlightAware ADS-B
09:10AM 52.8543 -2.9401 North 466 536 38,000  Level FlightAware ADS-B
09:10AM 52.9211 -2.9230 North 466 536 38,000  Level FlightAware ADS-B
09:11AM 52.9911 -2.9050 North 465 535 38,000  Level FlightAware ADS-B
09:11AM 53.0513 -2.8890 14° North 466 536 38,000  Level FlightAware ADS-B
09:12AM 53.0909 -2.8725 20° North 466 536 38,000  Level FlightAware ADS-B
09:12AM 53.1537 -2.8350 20° North 466 536 38,000  Level FlightAware ADS-B
09:13AM 53.2924 -2.7492 20° North 465 535 38,000  Level FlightAware ADS-B
09:14AM 53.4149 -2.6727 20° North 464 534 38,000  Level FlightAware ADS-B
09:15AM 53.4879 -2.6269 21° North 464 534 38,000  Level FlightAware ADS-B
09:15AM 53.5523 -2.5862 21° North 464 534 38,000  Level FlightAware ADS-B
09:16AM 53.6176 -2.5450 21° North 463 533 38,000  Level FlightAware ADS-B
09:18AM 53.8522 -2.3950 17° North 461 531 38,000  Level FlightAware ADS-B
09:18AM 53.8802 -2.3802 North 459 528 38,000  Level FlightAware ADS-B
09:18AM 53.8973 -2.3758 330° Northwest 459 528 38,000  Level FlightAware ADS-B
09:26AM 54.4301 -2.9078 329° Northwest  Level Estimated
09:27AM 54.5015 -2.9804 329° Northwest  Level Estimated
09:28AM 54.5730 -3.0533 329° Northwest  Level Estimated
09:29AM 54.6698 -3.1524 329° Northwest  Level Estimated
09:30AM 54.7664 -3.2521 329° Northwest  Level Estimated
09:31AM 54.8630 -3.3522 329° Northwest  Level Estimated
09:32AM 54.9595 -3.4528 329° Northwest  Level Estimated
09:33AM 55.0559 -3.5538 329° Northwest  Level Estimated
09:34AM 55.1270 -3.6288 329° Northwest  Level Estimated
09:35AM 55.1981 -3.7039 329° Northwest  Level Estimated
09:36AM 55.2691 -3.7794 329° Northwest  Level Estimated
09:37AM 55.3400 -3.8551 329° Northwest  Level Estimated
09:38AM 55.4109 -3.9311 329° Northwest  Level Estimated
09:39AM 55.4818 -4.0073 329° Northwest  Level Estimated
09:40AM 55.5526 -4.0838 329° Northwest  Level Estimated
09:41AM 55.6234 -4.1607 328° Northwest  Level Estimated
09:42AM 55.6941 -4.2378 328° Northwest  Level Estimated
09:43AM 55.7648 -4.3151 328° Northwest  Level Estimated
09:44AM 55.8354 -4.3927 328° Northwest  Level Estimated
09:45AM 55.9060 -4.4707 148° Southeast  Level Estimated
09:46AM 55.8103 -4.3652 328° Northwest  Level Estimated
09:47AM 55.9060 -4.4707 148° Southeast  Level Estimated
09:48AM 55.8103 -4.3652 328° Northwest  Level Estimated
09:49AM 55.9060 -4.4707 148° Southeast  Level Estimated
09:50AM 55.8354 -4.3928 328° Northwest  Level Estimated
09:51AM 55.9060 -4.4707 148° Southeast  Level Estimated
09:52AM 55.8354 -4.3928 328° Northwest  Level Estimated
09:53AM 55.9060 -4.4707 148° Southeast  Level Estimated
09:54AM 55.8354 -4.3928 328° Northwest  Level Estimated
09:55AM 55.9060 -4.4707 148° Southeast  Level Estimated
09:56AM 55.8354 -4.3928 328° Northwest  Level Estimated
09:57AM 55.9060 -4.4707 148° Southeast  Level Estimated
09:58AM 55.8354 -4.3928 148° Southeast  Level Estimated